createdAt,value
2023-03-26T00:01:24.001Z,96.63
2023-03-26T00:03:58.000Z,96.88
2023-03-26T00:06:28.981Z,96.60
2023-03-26T00:08:58.417Z,96.63
2023-03-26T00:11:29.824Z,96.38
2023-03-26T00:13:58.932Z,96.14
2023-03-26T00:16:29.295Z,96.53
2023-03-26T00:19:01.512Z,96.63
2023-03-26T00:21:31.493Z,96.60
2023-03-26T00:24:04.624Z,96.58
2023-03-26T00:26:33.705Z,96.27
2023-03-26T00:29:04.208Z,96.42
2023-03-26T00:31:33.016Z,96.31
2023-03-26T00:34:03.846Z,96.45
2023-03-26T00:36:32.273Z,96.46
2023-03-26T00:39:05.897Z,96.34
2023-03-26T00:41:43.066Z,96.42
2023-03-26T00:44:12.157Z,96.29
2023-03-26T00:46:40.481Z,96.37
2023-03-26T00:49:11.167Z,96.41
2023-03-26T00:51:39.705Z,96.20
2023-03-26T00:54:08.820Z,96.34
2023-03-26T00:56:37.196Z,96.22
2023-03-26T00:59:05.869Z,96.20
2023-03-26T01:01:34.043Z,96.60
2023-03-26T01:04:27.888Z,95.78
2023-03-26T01:06:58.585Z,95.75
2023-03-26T01:09:38.042Z,96.00
2023-03-26T01:12:10.397Z,96.46
2023-03-26T01:14:40.021Z,96.35
2023-03-26T01:17:09.286Z,96.05
2023-03-26T01:19:46.819Z,96.19
2023-03-26T01:22:17.615Z,96.11
2023-03-26T01:24:53.695Z,96.48
2023-03-26T01:27:32.117Z,96.06
2023-03-26T01:30:06.976Z,95.94
2023-03-26T01:32:55.611Z,96.23
2023-03-26T01:35:32.546Z,96.21
2023-03-26T01:38:11.952Z,96.18
2023-03-26T01:40:49.680Z,96.26
2023-03-26T01:43:31.893Z,96.09
2023-03-26T01:46:03.731Z,96.12
2023-03-26T01:48:34.934Z,96.00
2023-03-26T01:51:03.701Z,96.05
2023-03-26T01:53:33.776Z,96.19
2023-03-26T01:56:12.893Z,96.22
2023-03-26T01:58:53.397Z,96.20
2023-03-26T02:01:30.355Z,96.40
2023-03-26T02:04:04.899Z,96.07
2023-03-26T02:06:43.337Z,96.09
2023-03-26T02:09:15.842Z,95.77
2023-03-26T02:11:46.863Z,95.97
2023-03-26T02:14:16.303Z,96.03
2023-03-26T02:16:47.209Z,95.83
2023-03-26T02:19:21.915Z,95.96
2023-03-26T02:21:53.672Z,96.00
2023-03-26T02:24:22.265Z,96.07
2023-03-26T02:26:51.956Z,95.84
2023-03-26T02:29:22.374Z,95.75
2023-03-26T02:31:50.771Z,95.72
2023-03-26T02:34:18.948Z,95.79
2023-03-26T02:36:49.957Z,95.93
2023-03-26T02:39:18.994Z,95.96
2023-03-26T02:41:47.251Z,96.05
2023-03-26T02:44:16.537Z,95.99
2023-03-26T02:46:44.361Z,96.01
2023-03-26T02:49:12.538Z,96.13
2023-03-26T02:51:40.548Z,95.79
2023-03-26T02:54:08.532Z,96.18
2023-03-26T02:56:36.983Z,95.90
2023-03-26T02:59:04.848Z,96.40
2023-03-26T03:01:35.210Z,96.40
2023-03-26T03:04:04.647Z,96.20
2023-03-26T03:06:32.557Z,96.26
2023-03-26T03:09:02.717Z,96.51
2023-03-26T03:11:30.903Z,96.22
2023-03-26T03:13:58.760Z,96.24
2023-03-26T03:16:26.975Z,96.32
2023-03-26T03:18:58.183Z,96.46
2023-03-26T03:21:27.941Z,96.39
2023-03-26T03:23:56.242Z,96.47
2023-03-26T03:26:30.120Z,96.38
2023-03-26T03:28:59.301Z,96.50
2023-03-26T03:31:28.516Z,96.36
2023-03-26T03:33:58.054Z,96.44
2023-03-26T03:36:27.908Z,96.51
2023-03-26T03:39:02.848Z,96.51
2023-03-26T03:41:31.248Z,96.37
2023-03-26T03:43:59.933Z,96.42
2023-03-26T03:46:27.998Z,96.42
2023-03-26T03:48:57.453Z,96.50
2023-03-26T03:51:25.431Z,96.56
2023-03-26T03:53:54.623Z,96.63
2023-03-26T03:56:24.320Z,96.66
2023-03-26T03:58:52.148Z,96.79
2023-03-26T04:01:23.055Z,96.50
2023-03-26T04:03:51.322Z,96.69
2023-03-26T04:06:20.659Z,96.72
2023-03-26T04:08:48.956Z,96.78
2023-03-26T04:11:16.962Z,96.74
2023-03-26T04:13:44.842Z,96.88
2023-03-26T04:16:13.006Z,96.86
2023-03-26T04:18:41.133Z,96.43
2023-03-26T04:21:09.173Z,96.82
2023-03-26T04:23:38.650Z,96.80
2023-03-26T04:26:10.597Z,96.90
2023-03-26T04:28:46.593Z,96.92
2023-03-26T04:31:17.966Z,97.03
2023-03-26T04:33:47.806Z,96.78
2023-03-26T04:36:17.692Z,97.13
2023-03-26T04:38:52.128Z,97.15
2023-03-26T04:41:20.116Z,97.37
2023-03-26T04:43:50.873Z,97.20
2023-03-26T04:46:21.915Z,97.47
2023-03-26T04:48:50.307Z,97.37
2023-03-26T04:51:22.046Z,97.38
2023-03-26T04:53:54.804Z,97.48
2023-03-26T04:56:35.812Z,97.22
2023-03-26T04:59:04.981Z,97.48
2023-03-26T05:01:34.188Z,97.46
2023-03-26T05:04:02.086Z,97.56
2023-03-26T05:06:30.570Z,97.64
2023-03-26T05:08:59.808Z,97.60
2023-03-26T05:11:27.770Z,97.74
2023-03-26T05:13:57.144Z,97.62
2023-03-26T05:16:26.036Z,97.74
2023-03-26T05:18:54.128Z,97.92
2023-03-26T05:21:23.113Z,97.60
2023-03-26T05:23:51.073Z,97.52
2023-03-26T05:26:20.804Z,97.80
2023-03-26T05:28:49.119Z,97.78
2023-03-26T05:31:21.201Z,97.62
2023-03-26T05:33:49.818Z,97.71
2023-03-26T05:36:19.306Z,97.64
2023-03-26T05:38:47.792Z,97.42
2023-03-26T05:41:15.813Z,97.63
2023-03-26T05:43:47.335Z,97.75
2023-03-26T05:46:15.743Z,97.71
2023-03-26T05:48:43.728Z,97.68
2023-03-26T05:51:12.464Z,97.80
2023-03-26T05:53:40.469Z,97.56
2023-03-26T05:56:09.091Z,97.61
2023-03-26T05:58:38.062Z,97.81
2023-03-26T06:01:09.161Z,97.38
2023-03-26T06:03:39.559Z,97.41
2023-03-26T06:06:08.638Z,97.22
2023-03-26T06:08:36.611Z,96.74
2023-03-26T06:11:08.285Z,97.03
2023-03-26T06:13:36.277Z,96.92
2023-03-26T06:16:04.189Z,96.73
2023-03-26T06:18:33.730Z,96.62
2023-03-26T06:21:01.850Z,96.42
2023-03-26T06:23:29.715Z,96.40
2023-03-26T06:25:58.222Z,96.19
2023-03-26T06:28:26.397Z,95.90
2023-03-26T06:30:54.918Z,95.93
2023-03-26T06:33:24.618Z,95.54
2023-03-26T06:35:53.997Z,95.79
2023-03-26T06:38:21.978Z,95.49
2023-03-26T06:40:50.269Z,95.52
2023-03-26T06:43:18.221Z,95.27
2023-03-26T06:45:46.154Z,95.14
2023-03-26T06:48:14.236Z,95.17
2023-03-26T06:50:42.173Z,95.05
2023-03-26T06:53:12.236Z,94.96
2023-03-26T06:55:40.243Z,94.53
2023-03-26T06:58:08.154Z,94.79
2023-03-26T07:00:36.124Z,94.52
2023-03-26T07:03:04.837Z,94.67
2023-03-26T07:05:32.835Z,94.52
2023-03-26T07:08:00.754Z,94.23
2023-03-26T07:10:30.379Z,94.41
2023-03-26T07:12:58.293Z,94.40
2023-03-26T07:15:26.211Z,94.83
2023-03-26T07:17:54.223Z,94.54
2023-03-26T07:20:22.196Z,94.36
2023-03-26T07:22:51.092Z,94.25
2023-03-26T07:25:19.865Z,94.66
2023-03-26T07:28:00.455Z,94.33
2023-03-26T07:30:37.641Z,94.53
2023-03-26T07:33:11.124Z,93.96
2023-03-26T07:35:45.202Z,94.16
2023-03-26T07:38:34.300Z,94.44
2023-03-26T07:41:10.256Z,94.25
2023-03-26T07:43:57.424Z,93.92
2023-03-26T07:46:31.976Z,93.69
2023-03-26T07:49:01.943Z,93.69
2023-03-26T07:51:30.853Z,93.78
2023-03-26T07:54:00.711Z,93.98
2023-03-26T07:56:36.133Z,93.23
2023-03-26T07:59:14.974Z,93.47
2023-03-26T08:01:56.732Z,93.68
2023-03-26T08:04:58.744Z,92.68
2023-03-26T08:07:35.041Z,92.98
2023-03-26T08:10:09.557Z,92.99
2023-03-26T08:12:47.515Z,92.91
2023-03-26T08:15:26.338Z,93.33
2023-03-26T08:18:01.137Z,93.70
2023-03-26T08:20:38.316Z,93.52
2023-03-26T08:23:12.729Z,92.57
2023-03-26T08:25:52.420Z,92.74
2023-03-26T08:28:38.055Z,92.38
2023-03-26T08:31:11.146Z,93.30
2023-03-26T08:33:40.960Z,92.94
2023-03-26T08:36:09.761Z,93.12
2023-03-26T08:38:37.854Z,91.97
2023-03-26T08:41:54.674Z,90.94
2023-03-26T08:45:18.146Z,91.27
2023-03-26T08:48:48.704Z,90.70
2023-03-26T08:51:57.360Z,90.70
2023-03-26T08:54:52.242Z,90.02
2023-03-26T08:57:50.490Z,90.70
2023-03-26T09:00:39.580Z,89.96
2023-03-26T09:03:34.714Z,89.82
2023-03-26T09:06:44.255Z,90.00
2023-03-26T09:09:51.653Z,89.72
2023-03-26T09:12:49.726Z,89.53
2023-03-26T09:15:35.887Z,89.25
2023-03-26T09:18:42.732Z,89.06
2023-03-26T09:21:37.182Z,89.56
2023-03-26T09:24:37.324Z,89.94
2023-03-26T09:27:17.685Z,90.04
2023-03-26T09:30:38.110Z,90.09
2023-03-26T09:33:34.919Z,89.27
2023-03-26T09:36:22.558Z,89.60
2023-03-26T09:38:55.764Z,89.58
2023-03-26T09:41:39.307Z,89.43
2023-03-26T09:44:37.572Z,88.93
2023-03-26T09:47:28.477Z,89.30
2023-03-26T09:50:11.394Z,90.02
2023-03-26T09:53:04.095Z,89.37
2023-03-26T09:55:44.129Z,89.57
2023-03-26T09:58:58.072Z,89.69
2023-03-26T10:01:32.306Z,89.59
2023-03-26T10:04:18.777Z,90.02
2023-03-26T10:06:59.867Z,89.89
2023-03-26T10:09:41.042Z,89.27
2023-03-26T10:12:21.814Z,89.37
2023-03-26T10:15:02.195Z,90.06
2023-03-26T10:17:44.404Z,89.84
2023-03-26T10:20:35.417Z,89.34
2023-03-26T10:23:14.523Z,89.98
2023-03-26T10:25:56.378Z,89.27
2023-03-26T10:28:48.207Z,89.02
2023-03-26T10:31:34.392Z,89.06
2023-03-26T10:34:28.240Z,89.15
2023-03-26T10:37:04.216Z,88.87
2023-03-26T10:40:01.821Z,89.37
2023-03-26T10:42:44.754Z,89.00
2023-03-26T10:45:40.075Z,88.97
2023-03-26T10:48:27.926Z,88.88
2023-03-26T10:51:13.150Z,88.95
2023-03-26T10:53:48.947Z,89.08
2023-03-26T10:56:28.743Z,89.47
2023-03-26T10:58:59.078Z,89.17
2023-03-26T11:01:40.453Z,89.11
2023-03-26T11:04:41.384Z,88.65
2023-03-26T11:07:22.102Z,88.62
2023-03-26T11:10:00.613Z,88.27
2023-03-26T11:12:36.445Z,88.76
2023-03-26T11:15:17.168Z,88.57
2023-03-26T11:17:52.166Z,87.92
2023-03-26T11:20:28.578Z,87.59
2023-03-26T11:23:11.492Z,87.49
2023-03-26T11:25:58.733Z,87.61
2023-03-26T11:28:42.865Z,86.82
2023-03-26T11:31:42.601Z,87.38
2023-03-26T11:34:18.343Z,87.42
2023-03-26T11:36:52.656Z,87.00
2023-03-26T11:39:25.030Z,85.82
2023-03-26T11:42:00.492Z,85.74
2023-03-26T11:44:33.118Z,85.87
2023-03-26T11:47:10.243Z,85.53
2023-03-26T11:49:39.713Z,84.92
2023-03-26T11:52:15.827Z,84.58
2023-03-26T11:54:48.327Z,84.84
2023-03-26T11:57:22.652Z,84.11
2023-03-26T11:59:58.171Z,84.48
2023-03-26T12:02:32.625Z,83.58
2023-03-26T12:05:16.370Z,83.61
2023-03-26T12:07:51.287Z,83.29
2023-03-26T12:10:26.223Z,82.35
2023-03-26T12:12:57.507Z,81.91
2023-03-26T12:15:26.938Z,81.21
2023-03-26T12:17:58.121Z,81.59
2023-03-26T12:20:39.199Z,81.70
2023-03-26T12:23:31.770Z,82.06
2023-03-26T12:26:14.955Z,81.26
2023-03-26T12:28:56.606Z,81.21
2023-03-26T12:31:26.792Z,81.08
2023-03-26T12:34:11.506Z,79.99
2023-03-26T12:36:39.894Z,79.64
2023-03-26T12:40:10.336Z,78.23
2023-03-26T12:44:50.754Z,78.57
2023-03-26T12:45:16.285Z,78.92
2023-03-26T12:48:01.144Z,78.13
2023-03-26T12:50:46.596Z,77.03
2023-03-26T12:53:43.035Z,76.32
2023-03-26T12:56:22.198Z,75.82
2023-03-26T12:59:14.370Z,75.06
2023-03-26T13:01:51.957Z,75.45
2023-03-26T13:04:38.853Z,74.78
2023-03-26T13:07:18.404Z,75.21
2023-03-26T13:10:08.648Z,74.54
2023-03-26T13:12:47.215Z,74.63
2023-03-26T13:15:24.949Z,74.31
2023-03-26T13:18:05.628Z,74.38
2023-03-26T13:20:49.642Z,73.73
2023-03-26T13:23:30.598Z,73.62
2023-03-26T13:26:07.935Z,73.43
2023-03-26T13:28:47.860Z,73.64
2023-03-26T13:31:23.588Z,73.74
2023-03-26T13:34:01.828Z,73.24
2023-03-26T13:36:41.073Z,73.12
2023-03-26T13:39:29.798Z,73.65
2023-03-26T13:42:11.299Z,73.27
2023-03-26T13:45:04.759Z,72.80
2023-03-26T13:47:38.199Z,72.91
2023-03-26T13:50:22.201Z,72.67
2023-03-26T13:52:57.888Z,73.11
2023-03-26T13:55:31.414Z,73.26
2023-03-26T13:58:07.127Z,73.93
2023-03-26T14:00:59.556Z,73.15
2023-03-26T14:03:45.398Z,72.78
2023-03-26T14:06:28.978Z,72.37
2023-03-26T14:09:02.801Z,72.84
2023-03-26T14:11:45.973Z,72.29
2023-03-26T14:14:17.927Z,72.41
2023-03-26T14:16:53.711Z,72.47
2023-03-26T14:19:54.430Z,71.91
2023-03-26T14:22:30.509Z,72.39
2023-03-26T14:25:21.201Z,71.07
2023-03-26T14:28:21.346Z,70.87
2023-03-26T14:31:19.771Z,70.87
2023-03-26T14:34:02.363Z,70.85
2023-03-26T14:36:58.391Z,70.68
2023-03-26T14:39:39.232Z,70.85
2023-03-26T14:42:13.948Z,71.01
2023-03-26T14:45:13.793Z,69.96
2023-03-26T14:47:47.543Z,70.37
2023-03-26T14:50:38.002Z,70.00
2023-03-26T14:53:17.367Z,69.88
2023-03-26T14:56:05.208Z,70.44
2023-03-26T14:59:01.669Z,70.44
2023-03-26T15:01:38.563Z,71.10
2023-03-26T15:04:44.358Z,70.38
2023-03-26T15:07:41.490Z,70.95
2023-03-26T15:11:11.341Z,70.80
2023-03-26T15:13:56.976Z,71.18
2023-03-26T15:16:54.137Z,70.92
2023-03-26T15:19:57.582Z,71.35
2023-03-26T15:22:58.985Z,71.61
2023-03-26T15:26:05.839Z,71.87
2023-03-26T15:29:08.574Z,71.86
2023-03-26T15:32:22.473Z,71.99
2023-03-26T15:35:21.281Z,71.73
2023-03-26T15:38:34.832Z,72.57
2023-03-26T15:41:25.712Z,72.34
2023-03-26T15:44:43.826Z,72.32
2023-03-26T15:47:36.485Z,72.39
2023-03-26T15:50:23.389Z,71.84
2023-03-26T15:53:00.518Z,72.02
2023-03-26T15:55:36.661Z,72.33
2023-03-26T15:58:15.415Z,73.05
2023-03-26T16:00:51.308Z,72.51
2023-03-26T16:03:34.527Z,72.78
2023-03-26T16:06:28.408Z,72.99
2023-03-26T16:09:16.652Z,73.00
2023-03-26T16:11:49.736Z,72.68
2023-03-26T16:14:23.686Z,72.30
2023-03-26T16:16:58.685Z,72.35
2023-03-26T16:19:50.336Z,73.16
2023-03-26T16:22:42.380Z,72.83
2023-03-26T16:25:31.966Z,72.62
2023-03-26T16:28:29.002Z,72.71
2023-03-26T16:31:37.084Z,72.98
2023-03-26T16:34:29.695Z,72.97
2023-03-26T16:37:00.883Z,73.29
2023-03-26T16:39:43.755Z,73.06
2023-03-26T16:42:31.890Z,73.71
2023-03-26T16:45:16.154Z,73.80
2023-03-26T16:47:56.297Z,73.92
2023-03-26T16:50:35.191Z,73.76
2023-03-26T16:53:23.130Z,73.98
2023-03-26T16:55:57.863Z,74.13
2023-03-26T16:58:36.313Z,74.30
2023-03-26T17:01:23.261Z,74.01
2023-03-26T17:03:56.742Z,74.20
2023-03-26T17:07:02.126Z,74.30
2023-03-26T17:09:42.237Z,74.65
2023-03-26T17:12:19.947Z,74.49
2023-03-26T17:15:01.649Z,74.64
2023-03-26T17:17:45.817Z,74.69
2023-03-26T17:20:33.060Z,75.41
2023-03-26T17:23:12.678Z,75.25
2023-03-26T17:25:55.662Z,75.23
2023-03-26T17:28:39.121Z,75.40
2023-03-26T17:31:18.915Z,75.32
2023-03-26T17:33:48.193Z,75.49
2023-03-26T17:36:46.411Z,75.27
2023-03-26T17:39:46.422Z,75.53
2023-03-26T17:42:27.568Z,75.79
2023-03-26T17:44:56.699Z,75.76
2023-03-26T17:47:38.319Z,76.04
2023-03-26T17:50:14.961Z,75.96
2023-03-26T17:52:55.021Z,76.26
2023-03-26T17:55:26.045Z,76.16
2023-03-26T17:57:59.041Z,76.37
2023-03-26T18:00:33.468Z,76.32
2023-03-26T18:03:05.853Z,76.36
2023-03-26T18:05:37.626Z,76.21
2023-03-26T18:08:37.689Z,76.54
2023-03-26T18:11:24.885Z,76.62
2023-03-26T18:14:23.536Z,77.21
2023-03-26T18:16:54.311Z,76.62
2023-03-26T18:19:26.951Z,76.59
2023-03-26T18:21:58.692Z,76.74
2023-03-26T18:24:29.987Z,77.10
2023-03-26T18:27:02.689Z,77.18
2023-03-26T18:29:33.637Z,77.06
2023-03-26T18:32:04.166Z,77.00
2023-03-26T18:34:34.687Z,77.10
2023-03-26T18:37:15.759Z,77.44
2023-03-26T18:39:45.633Z,77.40
2023-03-26T18:42:24.484Z,77.29
2023-03-26T18:44:59.573Z,77.31
2023-03-26T18:47:31.717Z,77.41
2023-03-26T18:50:00.885Z,77.51
2023-03-26T18:52:30.079Z,77.67
2023-03-26T18:54:59.536Z,77.72
2023-03-26T18:57:29.747Z,77.62
2023-03-26T19:00:10.916Z,77.67
2023-03-26T19:02:42.543Z,77.58
2023-03-26T19:05:16.643Z,77.78
2023-03-26T19:07:47.247Z,77.77
2023-03-26T19:10:22.216Z,77.82
2023-03-26T19:12:56.678Z,77.87
2023-03-26T19:15:31.403Z,78.08
2023-03-26T19:18:07.147Z,77.86
2023-03-26T19:20:43.765Z,77.78
2023-03-26T19:23:16.417Z,77.96
2023-03-26T19:25:48.702Z,78.10
2023-03-26T19:28:20.909Z,78.00
2023-03-26T19:30:55.689Z,78.34
2023-03-26T19:33:24.551Z,78.11
2023-03-26T19:35:54.909Z,78.15
2023-03-26T19:38:25.650Z,78.22
2023-03-26T19:40:58.757Z,78.22
2023-03-26T19:43:27.118Z,78.35
2023-03-26T19:46:01.633Z,78.19
2023-03-26T19:48:45.796Z,78.45
2023-03-26T19:51:24.150Z,78.19
2023-03-26T19:53:56.210Z,78.07
2023-03-26T19:56:24.381Z,78.54
2023-03-26T19:58:52.587Z,78.33
2023-03-26T20:01:24.406Z,78.32
2023-03-26T20:03:55.591Z,78.43
2023-03-26T20:06:41.629Z,78.40
2023-03-26T20:09:12.367Z,78.33
2023-03-26T20:11:41.073Z,78.48
2023-03-26T20:14:14.185Z,78.65
2023-03-26T20:16:46.264Z,78.67
2023-03-26T20:19:15.391Z,78.77
2023-03-26T20:21:45.027Z,78.53
2023-03-26T20:24:17.536Z,78.73
2023-03-26T20:26:47.404Z,78.88
2023-03-26T20:29:15.981Z,78.97
2023-03-26T20:31:49.794Z,79.37
2023-03-26T20:34:19.860Z,79.50
2023-03-26T20:36:54.439Z,79.43
2023-03-26T20:39:23.499Z,79.23
2023-03-26T20:41:56.442Z,79.69
2023-03-26T20:44:26.875Z,79.90
2023-03-26T20:46:59.102Z,80.12
2023-03-26T20:49:29.563Z,80.14
2023-03-26T20:51:57.594Z,80.21
2023-03-26T20:54:29.893Z,80.62
2023-03-26T20:56:58.299Z,80.79
2023-03-26T20:59:28.059Z,81.02
2023-03-26T21:01:59.467Z,81.47
2023-03-26T21:04:28.342Z,81.35
2023-03-26T21:07:07.079Z,81.68
2023-03-26T21:09:45.100Z,81.74
2023-03-26T21:12:23.502Z,82.33
2023-03-26T21:14:52.416Z,82.28
2023-03-26T21:17:26.182Z,82.29
2023-03-26T21:19:56.022Z,82.22
2023-03-26T21:22:37.256Z,82.74
2023-03-26T21:25:19.863Z,82.91
2023-03-26T21:28:02.404Z,82.82
2023-03-26T21:30:31.213Z,82.85
2023-03-26T21:33:00.812Z,83.11
2023-03-26T21:35:29.441Z,83.02
2023-03-26T21:37:58.384Z,83.04
2023-03-26T21:40:26.850Z,83.18
2023-03-26T21:42:55.811Z,83.31
2023-03-26T21:45:24.794Z,83.37
2023-03-26T21:47:53.603Z,83.37
2023-03-26T21:50:25.784Z,83.50
2023-03-26T21:52:54.283Z,83.56
2023-03-26T21:55:24.113Z,83.83
2023-03-26T21:58:12.492Z,83.66
2023-03-26T22:00:50.589Z,83.54
2023-03-26T22:03:25.487Z,83.69
2023-03-26T22:06:03.604Z,83.82
2023-03-26T22:08:36.597Z,84.05
2023-03-26T22:11:04.493Z,83.87
2023-03-26T22:13:32.725Z,84.07
2023-03-26T22:16:01.113Z,84.18
2023-03-26T22:18:30.304Z,84.00
2023-03-26T22:21:00.453Z,84.60
2023-03-26T22:23:34.391Z,84.52
2023-03-26T22:26:02.906Z,84.63
2023-03-26T22:28:31.201Z,84.91
2023-03-26T22:30:59.665Z,85.11
2023-03-26T22:33:28.214Z,84.98
2023-03-26T22:35:56.804Z,85.41
2023-03-26T22:38:26.379Z,85.58
2023-03-26T22:40:57.793Z,85.70
2023-03-26T22:43:26.211Z,85.79
2023-03-26T22:45:55.155Z,86.23
2023-03-26T22:48:24.453Z,86.19
2023-03-26T22:51:01.170Z,86.34
2023-03-26T22:53:33.605Z,86.38
2023-03-26T22:56:02.124Z,86.50
2023-03-26T22:58:30.566Z,86.52
2023-03-26T23:01:03.988Z,86.85
2023-03-26T23:03:35.398Z,87.08
2023-03-26T23:06:06.528Z,87.10
2023-03-26T23:08:38.308Z,87.08
2023-03-26T23:11:10.211Z,87.54
2023-03-26T23:13:38.172Z,87.14
2023-03-26T23:16:07.366Z,87.52
2023-03-26T23:18:36.756Z,87.73
2023-03-26T23:21:06.054Z,87.76
2023-03-26T23:23:41.842Z,87.88
2023-03-26T23:26:09.895Z,88.16
2023-03-26T23:28:38.761Z,88.05
2023-03-26T23:31:09.232Z,88.05
2023-03-26T23:33:39.401Z,87.91
2023-03-26T23:36:10.056Z,88.21
2023-03-26T23:38:44.029Z,88.36
2023-03-26T23:41:15.472Z,88.47
2023-03-26T23:43:54.257Z,88.35
2023-03-26T23:46:23.703Z,88.53
2023-03-26T23:48:52.678Z,88.54
2023-03-26T23:51:21.618Z,88.33
2023-03-26T23:53:50.500Z,88.56
2023-03-26T23:56:20.240Z,88.70
2023-03-26T23:58:48.834Z,88.66
